• Join FlightAware (Why Join?)
  • Login
  • US Flag 
05:49AM EDT


 

Airport Tracker/Info


-or-


 

Live Flight TrackerFlight Track Log ✈ N1809M ✈ 04-Aug-2013 ✈ KMGY - KSOP

Flight Track Log - Related Links

Times and Time Zones

All times are in EDT time to prevent confusion due to time zone crossing. See the N1809M flight status page for this flight to view local times or setup timezone preferences in your user account.

Time Position Orientation Groundspeed Altitude Reporting Facility
EDT Latitude Longitude Course Direction KTS MPH feet Rate Location/Type
01:20PM 39.5611 -84.2417 176° South 133 153 3,300  Level Indianapolis Center
01:21PM 39.5047 -84.2369 176° South 145 167 4,100 300 Climbing Indianapolis Center
01:22PM 39.4675 -84.2303 172° South 165 190 4,000 60 Descending Indianapolis Center
01:23PM 39.4194 -84.2272 177° South 164 189 4,300 480 Climbing Indianapolis Center
01:24PM 39.3833 -84.2100 160° South 135 155 5,100 660 Climbing Indianapolis Center
01:25PM 39.3569 -84.1808 139° Southeast 122 140 5,700 600 Climbing Indianapolis Center
01:26PM 39.3281 -84.1569 147° Southeast 124 143 6,400 660 Climbing Indianapolis Center
01:27PM 39.3072 -84.1297 135° Southeast 114 131 7,000 660 Climbing Indianapolis Center
01:28PM 39.2792 -84.1022 143° Southeast 120 138 7,700 600 Climbing Indianapolis Center
01:29PM 39.2578 -84.0703 131° Southeast 120 138 8,300 540 Climbing Indianapolis Center
01:30PM 39.2317 -84.0342 133° Southeast 127 146 8,900 360 Climbing Indianapolis Center
01:31PM 39.2064 -83.9914 127° Southeast 140 161 9,100 60 Climbing Indianapolis Center
01:33PM 39.1803 -83.9422 124° Southeast 165 190 9,100  Level Indianapolis Center
01:34PM 39.1436 -83.9019 140° Southeast 171 197 9,100  Level Indianapolis Center
01:35PM 39.1089 -83.8558 134° Southeast 179 206 9,100  Level Indianapolis Center
01:36PM 39.0697 -83.8050 135° Southeast 178 205 9,100  Level Indianapolis Center
01:37PM 39.0336 -83.7617 137° Southeast 178 205 9,100  Level Indianapolis Center
01:38PM 38.9978 -83.7158 135° Southeast 179 206 9,100  Level Indianapolis Center
01:39PM 38.9611 -83.6717 137° Southeast 180 207 9,100  Level Indianapolis Center
01:40PM 38.9247 -83.6269 136° Southeast 181 208 9,100  Level Indianapolis Center
01:41PM 38.8856 -83.5789 136° Southeast 183 211 9,100  Level Indianapolis Center
01:43PM 38.8086 -83.4806 135° Southeast 180 207 9,100  Level Indianapolis Center
01:44PM 38.7736 -83.4372 136° Southeast 177 204 9,100  Level Indianapolis Center
01:45PM 38.7361 -83.3939 138° Southeast 179 206 9,100  Level Indianapolis Center
01:46PM 38.7008 -83.3492 135° Southeast 178 205 9,100  Level Indianapolis Center
01:47PM 38.6658 -83.3047 135° Southeast 177 204 9,100  Level Indianapolis Center
01:48PM 38.6303 -83.2603 136° Southeast 178 205 9,100  Level Indianapolis Center
01:49PM 38.5894 -83.2097 136° Southeast 176 203 9,100  Level Indianapolis Center
01:50PM 38.5531 -83.1681 138° Southeast 175 201 9,100  Level Indianapolis Center
01:51PM 38.5169 -83.1239 136° Southeast 178 205 9,100  Level Indianapolis Center
01:52PM 38.4808 -83.0803 137° Southeast 178 205 9,100  Level Indianapolis Center
01:53PM 38.4483 -83.0339 132° Southeast 177 204 9,100  Level Indianapolis Center
01:54PM 38.4153 -82.9900 134° Southeast 173 199 9,100  Level Indianapolis Center
01:55PM 38.3681 -82.9561 151° Southeast 173 199 9,100 -60 Level Indianapolis Center
01:56PM 38.3339 -82.9100 133° Southeast 176 203 9,000  Descending Indianapolis Center
01:57PM 38.3025 -82.8644 131° Southeast 173 199 9,100 240 Climbing Indianapolis Center
01:58PM 38.2703 -82.8203 133° Southeast 170 196 9,500 360 Climbing Indianapolis Center
01:59PM 38.2375 -82.7864 141° Southeast 159 183 9,900 360 Climbing Indianapolis Center
02:00PM 38.2072 -82.7514 138° Southeast 152 175 10,300 480 Climbing Indianapolis Center
02:01PM 38.1711 -82.7094 138° Southeast 149 171 10,900 360 Climbing Indianapolis Center
02:02PM 38.1417 -82.6722 135° Southeast 149 171 11,100 60 Climbing Indianapolis Center
02:03PM 38.1075 -82.6350 139° Southeast 156 180 11,100  Level Indianapolis Center
02:05PM 38.0722 -82.5911 136° Southeast 168 193 11,100  Level Indianapolis Center
02:06PM 38.0378 -82.5486 136° Southeast 172 198 11,100  Level Indianapolis Center
02:07PM 37.9964 -82.5136 146° Southeast 177 204 11,200  Climbing Indianapolis Center
02:08PM 37.9472 -82.4736 147° Southeast 179 206 11,100 -60 Descending Indianapolis Center
02:09PM 37.9053 -82.4414 149° Southeast 177 204 11,100  Level Indianapolis Center
02:10PM 37.8617 -82.4056 147° Southeast 181 208 11,100  Level Indianapolis Center
02:11PM 37.8242 -82.3658 140° Southeast 179 206 11,100  Level Indianapolis Center
02:12PM 37.7919 -82.3147 129° Southeast 183 211 11,100  Level Indianapolis Center
02:13PM 37.7583 -82.2681 132° Southeast 181 208 11,100  Level Indianapolis Center
02:14PM 37.7136 -82.2206 140° Southeast 180 207 11,100  Level Indianapolis Center
02:15PM 37.6769 -82.1783 138° Southeast 178 205 11,100  Level Indianapolis Center
02:16PM 37.6411 -82.1328 135° Southeast 181 208 11,100  Level Indianapolis Center
02:17PM 37.6050 -82.0892 136° Southeast 181 208 11,100  Level Indianapolis Center
02:18PM 37.5681 -82.0472 138° Southeast 179 206 11,100  Level Indianapolis Center
02:19PM 37.5308 -82.0014 136° Southeast 185 213 11,200  Climbing Indianapolis Center
02:20PM 37.4889 -81.9483 135° Southeast 184 212 11,100 -60 Descending Indianapolis Center
02:21PM 37.4489 -81.9050 139° Southeast 187 215 11,100  Level Indianapolis Center
02:22PM 37.4100 -81.8617 138° Southeast 187 215 11,100  Level Indianapolis Center
02:23PM 37.3714 -81.8164 137° Southeast 188 216 11,100  Level Indianapolis Center
02:24PM 37.3339 -81.7697 135° Southeast 188 216 11,100  Level Indianapolis Center
02:25PM 37.2956 -81.7250 137° Southeast 188 216 11,100  Level Indianapolis Center
02:26PM 37.2486 -81.6703 137° Southeast 195 224 11,100  Level Indianapolis Center
02:27PM 37.2108 -81.6250 136° Southeast 190 219 11,100  Level Indianapolis Center
02:28PM 37.1717 -81.5797 137° Southeast 190 219 11,100  Level Indianapolis Center
02:29PM 37.1336 -81.5344 137° Southeast 190 219 11,200  Climbing Indianapolis Center
02:30PM 37.0953 -81.4872 135° Southeast 193 222 11,100 -60 Descending Indianapolis Center
02:31PM 37.0547 -81.4417 138° Southeast 194 223 11,100  Level Indianapolis Center
02:32PM 37.0100 -81.3900 137° Southeast 195 224 11,100  Level Indianapolis Center
02:33PM 36.9819 -81.3597 139° Southeast 194 223 11,100  Level Atlanta Center
02:34PM 36.9458 -81.3194 138° Southeast 199 229 11,100  Level Atlanta Center
02:35PM 36.9072 -81.2717 135° Southeast 199 229 11,200  Climbing Atlanta Center
02:36PM 36.8686 -81.2261 137° Southeast 199 229 11,100 -300 Descending Atlanta Center
02:37PM 36.8236 -81.1708 135° Southeast 199 229 10,600 -480 Descending Atlanta Center
02:38PM 36.7825 -81.1178 134° Southeast 204 235 10,200 -360 Descending Atlanta Center
02:39PM 36.7442 -81.0831 144° Southeast 204 235 9,900 -360 Descending Atlanta Center
02:40PM 36.7014 -81.0303 135° Southeast 204 235 9,500 -420 Descending Atlanta Center
02:41PM 36.6583 -80.9825 138° Southeast 197 227 9,100 -300 Descending Atlanta Center
02:42PM 36.6175 -80.9350 137° Southeast 197 227 9,000 -240 Descending Atlanta Center
02:43PM 36.5789 -80.8925 139° Southeast 192 221 8,700 -360 Descending Atlanta Center
02:44PM 36.5358 -80.8425 137° Southeast 197 227 8,300 -360 Descending Atlanta Center
02:45PM 36.4950 -80.7953 137° Southeast 197 227 8,000 -300 Descending Atlanta Center
02:46PM 36.4583 -80.7450 132° Southeast 197 227 7,700 -360 Descending Atlanta Center
02:47PM 36.4339 -80.6867 117° Southeast 192 221 7,300 -420 Descending Atlanta Center
02:48PM 36.3950 -80.6367 134° Southeast 192 221 6,900 -240 Descending Atlanta Center
02:49PM 36.3567 -80.6125 153° Southeast 182 209 6,900  Level Atlanta Center
02:50PM 36.3261 -80.5675 130° Southeast 171 197 7,000  Climbing Atlanta Center
02:51PM 36.2853 -80.5228 139° Southeast 171 197 7,000  Level Atlanta Center
02:52PM 36.2467 -80.4858 142° Southeast 177 204 7,000  Level Atlanta Center
02:53PM 36.2119 -80.4386 132° Southeast 177 204 7,000  Level Atlanta Center
02:55PM 36.1574 -80.3796 139° Southeast  Level FlightAware Approximate
03:02PM 35.9024 -80.1054 139° Southeast  Level FlightAware Approximate
03:03PM 35.8659 -80.0663 139° Southeast  Level FlightAware Approximate
03:04PM 35.8294 -80.0273 139° Southeast  Level FlightAware Approximate
03:05PM 35.7929 -79.9884 139° Southeast  Level FlightAware Approximate
03:06PM 35.7564 -79.9494 139° Southeast  Level FlightAware Approximate
03:07PM 35.7198 -79.9106 139° Southeast  Level FlightAware Approximate
03:08PM 35.6833 -79.8717 139° Southeast  Level FlightAware Approximate
03:09PM 35.6467 -79.8329 139° Southeast  Level FlightAware Approximate
03:10PM 35.6101 -79.7941 139° Southeast  Level FlightAware Approximate
03:11PM 35.5729 -79.7563 141° Southeast  Level FlightAware Approximate
03:12PM 35.5362 -79.7178 137° Southeast  Level FlightAware Approximate
03:13PM 35.5006 -79.6777 137° Southeast  Level FlightAware Approximate
03:14PM 35.4650 -79.6376 137° Southeast  Level FlightAware Approximate
03:15PM 35.4294 -79.5976 138° Southeast  Level FlightAware Approximate
03:16PM 35.3937 -79.5578 138° Southeast  Level FlightAware Approximate
03:17PM 35.3579 -79.5180 138° Southeast  Level FlightAware Approximate
03:18PM 35.3222 -79.4782 138° Southeast  Level FlightAware Approximate
03:19PM 35.2864 -79.4385 138° Southeast  Level FlightAware Approximate
03:20PM 35.2499 -79.3999 141° Southeast  Level FlightAware Approximate
03:21PM 35.2333 -79.3833 141° Southeast  Level FlightAware Approximate
03:22PM 35.2380 -79.3883 141° Southeast  Level Estimated